createdAt,value
2022-12-18T00:01:39.808Z,99.90
2022-12-18T00:04:19.872Z,99.90
2022-12-18T00:06:50.177Z,99.90
2022-12-18T00:09:21.289Z,99.90
2022-12-18T00:11:55.840Z,99.90
2022-12-18T00:14:28.542Z,99.90
2022-12-18T00:17:01.621Z,99.90
2022-12-18T00:19:33.918Z,99.90
2022-12-18T00:22:03.995Z,99.90
2022-12-18T00:24:34.370Z,99.90
2022-12-18T00:27:04.449Z,99.90
2022-12-18T00:29:37.403Z,99.90
2022-12-18T00:32:07.576Z,99.90
2022-12-18T00:34:37.920Z,99.90
2022-12-18T00:37:07.950Z,99.90
2022-12-18T00:39:38.404Z,99.90
2022-12-18T00:42:20.726Z,99.90
2022-12-18T00:44:58.566Z,99.90
2022-12-18T00:47:31.514Z,99.90
2022-12-18T00:50:01.646Z,99.90
2022-12-18T00:52:33.084Z,99.90
2022-12-18T00:55:06.634Z,99.90
2022-12-18T00:57:37.193Z,99.90
2022-12-18T01:00:14.077Z,99.90
2022-12-18T01:02:46.435Z,99.90
2022-12-18T01:05:18.377Z,99.90
2022-12-18T01:07:50.914Z,99.90
2022-12-18T01:10:21.687Z,99.90
2022-12-18T01:12:51.915Z,99.90
2022-12-18T01:15:24.695Z,99.90
2022-12-18T01:17:56.645Z,99.90
2022-12-18T01:20:26.738Z,99.90
2022-12-18T01:22:56.795Z,99.90
2022-12-18T01:25:27.029Z,99.90
2022-12-18T01:27:57.089Z,99.90
2022-12-18T01:30:29.812Z,99.90
2022-12-18T01:32:59.927Z,99.90
2022-12-18T01:35:30.062Z,99.90
2022-12-18T01:38:01.459Z,99.90
2022-12-18T01:40:31.641Z,99.90
2022-12-18T01:43:02.795Z,99.90
2022-12-18T01:45:36.371Z,99.90
2022-12-18T01:48:12.087Z,99.90
2022-12-18T01:50:45.841Z,99.90
2022-12-18T01:53:20.766Z,99.90
2022-12-18T01:55:54.250Z,99.90
2022-12-18T01:58:32.380Z,99.90
2022-12-18T02:01:05.437Z,99.90
2022-12-18T02:03:35.828Z,99.90
2022-12-18T02:06:17.068Z,99.90
2022-12-18T02:09:02.375Z,99.90
2022-12-18T02:11:50.220Z,99.90
2022-12-18T02:14:32.467Z,99.90
2022-12-18T02:17:14.794Z,99.90
2022-12-18T02:20:06.306Z,99.90
2022-12-18T02:22:53.763Z,99.90
2022-12-18T02:25:50.484Z,99.90
2022-12-18T02:28:29.999Z,99.90
2022-12-18T02:31:07.895Z,99.90
2022-12-18T02:33:41.434Z,99.90
2022-12-18T02:36:15.482Z,99.90
2022-12-18T02:38:49.347Z,99.90
2022-12-18T02:41:21.598Z,99.90
2022-12-18T02:44:05.577Z,99.90
2022-12-18T02:46:40.128Z,99.90
2022-12-18T02:49:31.519Z,99.90
2022-12-18T02:52:17.916Z,99.90
2022-12-18T02:55:23.259Z,99.90
2022-12-18T02:57:59.813Z,99.90
2022-12-18T03:00:41.480Z,99.90
2022-12-18T03:03:20.089Z,99.90
2022-12-18T03:06:00.404Z,99.90
2022-12-18T03:08:35.563Z,99.90
2022-12-18T03:11:10.086Z,99.90
2022-12-18T03:13:47.159Z,99.90
2022-12-18T03:16:26.976Z,99.90
2022-12-18T03:19:04.819Z,99.90
2022-12-18T03:21:44.595Z,99.90
2022-12-18T03:24:17.792Z,99.90
2022-12-18T03:26:53.132Z,99.90
2022-12-18T03:29:31.908Z,99.90
2022-12-18T03:32:11.882Z,99.90
2022-12-18T03:34:45.552Z,99.90
2022-12-18T03:37:15.752Z,99.90
2022-12-18T03:39:46.080Z,99.90
2022-12-18T03:42:29.792Z,99.90
2022-12-18T03:45:12.140Z,99.90
2022-12-18T03:48:02.535Z,99.90
2022-12-18T03:50:48.152Z,99.90
2022-12-18T03:53:36.936Z,99.90
2022-12-18T03:56:11.159Z,99.90
2022-12-18T03:58:45.119Z,99.90
2022-12-18T04:01:21.453Z,99.90
2022-12-18T04:03:57.625Z,99.90
2022-12-18T04:06:28.163Z,99.90
2022-12-18T04:08:58.768Z,99.90
2022-12-18T04:11:29.208Z,99.90
2022-12-18T04:14:03.655Z,99.90
2022-12-18T04:16:37.135Z,99.90
2022-12-18T04:19:09.915Z,99.90
2022-12-18T04:21:40.584Z,99.90
2022-12-18T04:24:11.765Z,99.90
2022-12-18T04:26:43.440Z,99.90
2022-12-18T04:29:13.645Z,99.90
2022-12-18T04:31:44.336Z,99.90
2022-12-18T04:34:17.514Z,99.90
2022-12-18T04:36:47.784Z,99.90
2022-12-18T04:39:22.294Z,99.90
2022-12-18T04:41:53.132Z,99.90
2022-12-18T04:44:23.783Z,99.90
2022-12-18T04:46:54.916Z,99.90
2022-12-18T04:49:28.325Z,99.90
2022-12-18T04:51:58.679Z,99.90
2022-12-18T04:54:28.972Z,99.90
2022-12-18T04:57:00.879Z,99.90
2022-12-18T04:59:31.313Z,99.90
2022-12-18T05:02:01.654Z,99.90
2022-12-18T05:04:34.368Z,99.90
2022-12-18T05:07:04.547Z,99.90
2022-12-18T05:09:34.708Z,99.90
2022-12-18T05:12:04.831Z,99.90
2022-12-18T05:14:34.911Z,99.90
2022-12-18T05:17:05.008Z,99.90
2022-12-18T05:19:40.174Z,99.90
2022-12-18T05:22:13.953Z,99.90
2022-12-18T05:24:44.082Z,99.90
2022-12-18T05:27:14.201Z,99.90
2022-12-18T05:29:44.489Z,99.90
2022-12-18T05:32:14.609Z,99.90
2022-12-18T05:34:47.351Z,99.90
2022-12-18T05:37:18.034Z,99.90
2022-12-18T05:39:48.371Z,99.90
2022-12-18T05:42:18.636Z,99.90
2022-12-18T05:44:48.814Z,99.90
2022-12-18T05:47:18.914Z,99.90
2022-12-18T05:49:51.580Z,99.90
2022-12-18T05:52:22.058Z,99.90
2022-12-18T05:54:52.356Z,99.90
2022-12-18T05:57:22.655Z,99.90
2022-12-18T05:59:52.713Z,99.90
2022-12-18T06:02:28.313Z,99.90
2022-12-18T06:05:01.048Z,99.90
2022-12-18T06:07:31.159Z,99.90
2022-12-18T06:10:01.288Z,99.90
2022-12-18T06:12:31.896Z,99.90
2022-12-18T06:15:02.875Z,99.90
2022-12-18T06:17:33.576Z,99.90
2022-12-18T06:20:10.713Z,99.90
2022-12-18T06:22:41.332Z,99.90
2022-12-18T06:25:12.970Z,99.90
2022-12-18T06:27:43.496Z,99.90
2022-12-18T06:30:18.885Z,99.90
2022-12-18T06:32:54.696Z,99.90
2022-12-18T06:35:29.362Z,99.90
2022-12-18T06:37:59.656Z,99.90
2022-12-18T06:40:29.892Z,99.90
2022-12-18T06:43:01.166Z,99.90
2022-12-18T06:45:32.330Z,99.90
2022-12-18T06:48:02.894Z,99.90
2022-12-18T06:50:46.392Z,99.90
2022-12-18T06:53:17.051Z,99.90
2022-12-18T06:55:47.996Z,99.90
2022-12-18T06:58:18.222Z,99.90
2022-12-18T07:00:49.499Z,99.90
2022-12-18T07:03:19.971Z,99.90
2022-12-18T07:05:53.106Z,99.90
2022-12-18T07:08:23.416Z,99.90
2022-12-18T07:10:56.368Z,99.90
2022-12-18T07:13:28.235Z,99.90
2022-12-18T07:15:58.554Z,99.90
2022-12-18T07:18:28.971Z,99.90
2022-12-18T07:21:05.804Z,99.90
2022-12-18T07:23:39.120Z,99.90
2022-12-18T07:26:13.301Z,99.90
2022-12-18T07:28:45.818Z,99.90
2022-12-18T07:31:21.536Z,99.90
2022-12-18T07:33:56.099Z,99.90
2022-12-18T07:36:32.276Z,99.90
2022-12-18T07:39:03.893Z,99.90
2022-12-18T07:41:34.770Z,99.90
2022-12-18T07:44:04.827Z,99.90
2022-12-18T07:46:36.088Z,99.90
2022-12-18T07:49:07.807Z,99.90
2022-12-18T07:51:42.473Z,99.90
2022-12-18T07:54:12.516Z,99.90
2022-12-18T07:56:43.694Z,99.90
2022-12-18T07:59:14.946Z,99.90
2022-12-18T08:01:48.402Z,99.90
2022-12-18T08:04:18.477Z,99.90
2022-12-18T08:06:52.771Z,99.90
2022-12-18T08:09:22.903Z,99.90
2022-12-18T08:11:53.825Z,99.90
2022-12-18T08:14:24.737Z,99.90
2022-12-18T08:16:54.864Z,99.90
2022-12-18T08:19:26.377Z,99.90
2022-12-18T08:21:59.124Z,99.90
2022-12-18T08:24:29.448Z,99.90
2022-12-18T08:27:27.756Z,99.90
2022-12-18T08:29:50.006Z,99.90
2022-12-18T08:32:20.201Z,99.90
2022-12-18T08:34:50.515Z,99.90
2022-12-18T08:37:23.352Z,99.90
2022-12-18T08:39:53.488Z,99.90
2022-12-18T08:42:37.468Z,99.90
2022-12-18T08:45:08.863Z,99.90
2022-12-18T08:47:40.183Z,99.90
2022-12-18T08:50:12.951Z,99.90
2022-12-18T08:52:45.614Z,99.90
2022-12-18T08:55:17.519Z,99.90
2022-12-18T08:57:52.740Z,99.90
2022-12-18T09:00:23.078Z,99.90
2022-12-18T09:02:53.385Z,99.90
2022-12-18T09:05:23.928Z,99.90
2022-12-18T09:08:00.238Z,99.90
2022-12-18T09:10:30.284Z,78.40
2022-12-18T09:13:00.373Z,35.80
2022-12-18T09:15:30.422Z,12.10
2022-12-18T09:18:00.708Z,1.00
2022-12-18T09:20:33.967Z,1.00
2022-12-18T09:23:09.929Z,1.00
2022-12-18T09:25:42.157Z,1.00
2022-12-18T09:28:20.419Z,1.00
2022-12-18T09:30:52.928Z,99.90
2022-12-18T09:33:24.478Z,99.90
2022-12-18T09:35:54.668Z,1.00
2022-12-18T09:38:27.584Z,1.00
2022-12-18T09:41:04.159Z,1.00
2022-12-18T09:43:45.399Z,99.90
2022-12-18T09:46:26.468Z,99.90
2022-12-18T09:49:02.931Z,9.60
2022-12-18T09:51:41.387Z,99.90
2022-12-18T09:54:22.481Z,99.90
2022-12-18T09:56:52.852Z,1.00
2022-12-18T09:59:30.763Z,1.00
2022-12-18T10:02:01.509Z,99.90
2022-12-18T10:04:36.358Z,99.90
2022-12-18T10:07:16.122Z,1.00
2022-12-18T10:10:04.987Z,1.00
2022-12-18T10:12:46.500Z,1.00
2022-12-18T10:15:26.068Z,1.00
2022-12-18T10:18:18.786Z,99.90
2022-12-18T10:20:57.291Z,99.90
2022-12-18T10:23:37.273Z,99.90
2022-12-18T10:26:13.306Z,15.70
2022-12-18T10:28:45.495Z,1.00
2022-12-18T10:31:21.814Z,99.90
2022-12-18T10:33:57.550Z,99.90
2022-12-18T10:36:28.502Z,82.50
2022-12-18T10:39:20.999Z,99.90
2022-12-18T10:42:13.098Z,1.00
2022-12-18T10:44:46.515Z,99.90
2022-12-18T10:47:22.481Z,1.00
2022-12-18T10:49:58.015Z,1.00
2022-12-18T10:52:31.665Z,1.00
2022-12-18T10:55:06.811Z,1.00
2022-12-18T10:57:43.339Z,1.00
2022-12-18T11:00:37.124Z,1.00
2022-12-18T11:04:00.433Z,99.90
2022-12-18T11:06:35.064Z,1.00
2022-12-18T11:09:21.786Z,1.00
2022-12-18T11:11:55.116Z,99.90
2022-12-18T11:14:31.952Z,77.00
2022-12-18T11:19:59.894Z,1.00
2022-12-18T11:22:33.261Z,1.00
2022-12-18T11:25:33.039Z,1.00
2022-12-18T11:28:01.754Z,99.90
2022-12-18T11:30:37.739Z,99.90
2022-12-18T11:33:13.518Z,1.00
2022-12-18T11:35:53.408Z,1.00
2022-12-18T11:38:28.724Z,1.00
2022-12-18T11:41:07.767Z,1.00
2022-12-18T11:43:45.032Z,1.00
2022-12-18T11:46:27.851Z,1.00
2022-12-18T11:49:11.268Z,1.00
2022-12-18T11:51:49.145Z,1.00
2022-12-18T11:54:20.467Z,1.00
2022-12-18T11:57:02.521Z,1.00
2022-12-18T11:59:51.903Z,1.00
2022-12-18T12:03:06.237Z,1.00
2022-12-18T12:06:10.644Z,1.00
2022-12-18T12:09:02.189Z,1.00
2022-12-18T12:11:54.142Z,1.00
2022-12-18T12:14:51.966Z,1.00
2022-12-18T12:17:40.619Z,1.00
2022-12-18T12:20:23.734Z,1.00
2022-12-18T12:23:03.219Z,1.00
2022-12-18T12:25:45.823Z,1.00
2022-12-18T12:29:20.832Z,1.00
2022-12-18T12:32:10.898Z,1.00
2022-12-18T12:35:09.885Z,1.00
2022-12-18T12:37:53.530Z,1.00
2022-12-18T12:43:36.677Z,1.00
2022-12-18T12:46:10.953Z,1.00
2022-12-18T12:48:50.324Z,1.00
2022-12-18T12:51:29.903Z,1.00
2022-12-18T12:54:04.898Z,1.00
2022-12-18T12:56:46.762Z,1.00
2022-12-18T12:59:38.894Z,1.00
2022-12-18T13:05:25.661Z,1.00
2022-12-18T13:08:10.479Z,1.00
2022-12-18T13:10:43.099Z,1.00
2022-12-18T13:16:11.655Z,2.90
2022-12-18T13:18:42.212Z,1.00
2022-12-18T13:21:29.423Z,1.00
2022-12-18T13:24:24.719Z,15.10
2022-12-18T13:26:55.022Z,30.00
2022-12-18T13:29:48.431Z,33.50
2022-12-18T13:32:26.483Z,39.20
2022-12-18T13:35:43.257Z,47.70
2022-12-18T13:38:27.173Z,57.70
2022-12-18T13:41:05.667Z,72.60
2022-12-18T13:43:46.224Z,91.30
2022-12-18T13:46:28.008Z,76.00
2022-12-18T13:49:07.807Z,78.40
2022-12-18T13:51:39.332Z,51.60
2022-12-18T13:54:23.612Z,46.60
2022-12-18T13:56:58.679Z,57.20
2022-12-18T13:59:33.087Z,41.50
2022-12-18T14:02:14.125Z,20.40
2022-12-18T14:04:44.615Z,25.30
2022-12-18T14:07:20.915Z,38.20
2022-12-18T14:10:12.038Z,36.80
2022-12-18T14:13:03.276Z,46.00
2022-12-18T14:15:40.420Z,46.30
2022-12-18T14:18:27.178Z,41.80
2022-12-18T14:21:04.600Z,38.20
2022-12-18T14:23:40.634Z,48.30
2022-12-18T14:26:30.108Z,41.20
2022-12-18T14:29:21.631Z,41.50
2022-12-18T14:32:16.913Z,59.80
2022-12-18T14:34:52.125Z,82.10
2022-12-18T14:37:27.479Z,79.80
2022-12-18T14:40:07.167Z,91.20
2022-12-18T14:42:41.715Z,94.10
2022-12-18T14:45:47.951Z,96.90
2022-12-18T14:48:24.179Z,94.20
2022-12-18T14:51:09.354Z,97.70
2022-12-18T14:53:47.593Z,99.90
2022-12-18T14:56:25.041Z,99.90
2022-12-18T14:59:03.314Z,99.90
2022-12-18T15:01:40.611Z,99.90
2022-12-18T15:04:37.609Z,99.90
2022-12-18T15:07:17.218Z,99.90
2022-12-18T15:10:13.535Z,99.90
2022-12-18T15:12:46.156Z,99.90
2022-12-18T15:15:50.141Z,99.90
2022-12-18T15:18:27.380Z,99.90
2022-12-18T15:21:01.465Z,99.90
2022-12-18T15:23:39.747Z,99.90
2022-12-18T15:26:15.926Z,99.90
2022-12-18T15:28:51.649Z,99.90
2022-12-18T15:31:36.787Z,99.90
2022-12-18T15:34:22.254Z,99.90
2022-12-18T15:36:54.179Z,99.90
2022-12-18T15:39:24.394Z,99.90
2022-12-18T15:42:07.191Z,99.90
2022-12-18T15:44:39.612Z,99.90
2022-12-18T15:47:16.412Z,99.90
2022-12-18T15:49:49.161Z,99.90
2022-12-18T15:52:26.979Z,99.90
2022-12-18T15:55:09.848Z,99.90
2022-12-18T15:57:40.155Z,99.90
2022-12-18T16:00:18.065Z,99.90
2022-12-18T16:02:48.317Z,99.90
2022-12-18T16:05:23.515Z,99.90
2022-12-18T16:07:53.697Z,99.90
2022-12-18T16:10:27.932Z,99.90
2022-12-18T16:12:58.369Z,99.90
2022-12-18T16:15:28.565Z,99.90
2022-12-18T16:17:58.970Z,99.90
2022-12-18T16:20:31.686Z,99.90
2022-12-18T16:23:02.269Z,99.90
2022-12-18T16:25:33.109Z,99.90
2022-12-18T16:28:03.200Z,99.90
2022-12-18T16:30:38.297Z,99.90
2022-12-18T16:33:09.632Z,99.90
2022-12-18T16:35:44.594Z,99.90
2022-12-18T16:38:17.789Z,99.90
2022-12-18T16:41:00.134Z,99.90
2022-12-18T16:43:30.247Z,99.90
2022-12-18T16:46:03.023Z,99.90
2022-12-18T16:48:35.715Z,99.90
2022-12-18T16:51:09.337Z,99.90
2022-12-18T16:53:39.801Z,99.90
2022-12-18T16:56:10.459Z,99.90
2022-12-18T16:58:40.533Z,99.90
2022-12-18T17:01:14.028Z,99.90
2022-12-18T17:03:44.824Z,99.90
2022-12-18T17:06:19.457Z,99.90
2022-12-18T17:08:54.080Z,99.90
2022-12-18T17:11:24.823Z,99.90
2022-12-18T17:13:55.456Z,99.90
2022-12-18T17:16:27.053Z,99.90
2022-12-18T17:18:57.286Z,99.90
2022-12-18T17:21:30.026Z,99.90
2022-12-18T17:24:03.251Z,99.90
2022-12-18T17:26:34.792Z,99.90
2022-12-18T17:29:04.884Z,99.90
2022-12-18T17:31:37.579Z,99.90
2022-12-18T17:34:10.552Z,99.90
2022-12-18T17:36:43.359Z,99.90
2022-12-18T17:39:22.356Z,99.90
2022-12-18T17:41:52.856Z,99.90
2022-12-18T17:44:23.194Z,99.90
2022-12-18T17:46:53.431Z,99.90
2022-12-18T17:49:23.735Z,99.90
2022-12-18T17:51:56.677Z,99.90
2022-12-18T17:54:26.795Z,99.90
2022-12-18T17:56:56.888Z,99.90
2022-12-18T17:59:28.240Z,99.90
2022-12-18T18:01:58.474Z,99.90
2022-12-18T18:04:29.279Z,99.90
2022-12-18T18:07:01.953Z,99.90
2022-12-18T18:09:34.222Z,99.90
2022-12-18T18:12:16.762Z,99.90
2022-12-18T18:14:47.082Z,99.90
2022-12-18T18:17:17.505Z,99.90
2022-12-18T18:19:49.571Z,99.90
2022-12-18T18:22:22.799Z,99.90
2022-12-18T18:24:54.507Z,99.90
2022-12-18T18:27:24.668Z,99.90
2022-12-18T18:29:54.978Z,99.90
2022-12-18T18:32:25.258Z,99.90
2022-12-18T18:34:56.434Z,99.90
2022-12-18T18:37:29.385Z,99.90
2022-12-18T18:40:21.473Z,99.90
2022-12-18T18:42:51.669Z,99.90
2022-12-18T18:45:21.736Z,99.90
2022-12-18T18:47:51.782Z,99.90
2022-12-18T18:50:21.897Z,99.90
2022-12-18T18:52:58.752Z,99.90
2022-12-18T18:55:28.855Z,99.90
2022-12-18T18:57:58.977Z,99.90
2022-12-18T19:00:30.912Z,99.90
2022-12-18T19:03:01.268Z,99.90
2022-12-18T19:05:34.019Z,99.90
2022-12-18T19:08:07.563Z,99.90
2022-12-18T19:10:42.588Z,99.90
2022-12-18T19:13:22.241Z,99.90
2022-12-18T19:15:52.776Z,99.90
2022-12-18T19:18:23.976Z,99.90
2022-12-18T19:21:02.906Z,99.90
2022-12-18T19:23:51.839Z,99.90
2022-12-18T19:26:27.831Z,99.90
2022-12-18T19:29:03.951Z,99.90
2022-12-18T19:31:36.371Z,99.90
2022-12-18T19:34:09.661Z,99.90
2022-12-18T19:36:42.794Z,99.90
2022-12-18T19:39:19.156Z,99.90
2022-12-18T19:41:51.819Z,99.90
2022-12-18T19:44:21.996Z,99.90
2022-12-18T19:46:54.401Z,99.90
2022-12-18T19:49:27.784Z,99.90
2022-12-18T19:51:58.156Z,99.90
2022-12-18T19:54:31.118Z,99.90
2022-12-18T19:57:01.182Z,99.90
2022-12-18T19:59:31.292Z,99.90
2022-12-18T20:02:01.442Z,99.90
2022-12-18T20:04:32.139Z,99.90
2022-12-18T20:07:02.551Z,99.90
2022-12-18T20:09:36.866Z,99.90
2022-12-18T20:12:08.283Z,99.90
2022-12-18T20:14:38.750Z,99.90
2022-12-18T20:17:08.938Z,99.90
2022-12-18T20:19:39.800Z,99.90
2022-12-18T20:22:12.486Z,99.90
2022-12-18T20:24:45.255Z,99.90
2022-12-18T20:27:20.406Z,99.90
2022-12-18T20:29:52.132Z,99.90
2022-12-18T20:32:22.421Z,99.90
2022-12-18T20:34:52.751Z,99.90
2022-12-18T20:37:23.589Z,99.90
2022-12-18T20:39:56.473Z,99.90
2022-12-18T20:42:28.172Z,99.90
2022-12-18T20:44:58.292Z,99.90
2022-12-18T20:47:31.654Z,99.90
2022-12-18T20:50:01.848Z,99.90
2022-12-18T20:52:31.974Z,99.90
2022-12-18T20:55:08.411Z,99.90
2022-12-18T20:57:39.010Z,99.90
2022-12-18T21:00:20.048Z,99.90
2022-12-18T21:02:51.706Z,99.90
2022-12-18T21:05:21.940Z,99.90
2022-12-18T21:07:52.004Z,99.90
2022-12-18T21:10:24.851Z,99.90
2022-12-18T21:12:58.895Z,99.90
2022-12-18T21:15:33.371Z,99.90
2022-12-18T21:18:04.315Z,99.90
2022-12-18T21:20:34.451Z,99.90
2022-12-18T21:23:15.784Z,99.90
2022-12-18T21:25:54.190Z,99.90
2022-12-18T21:28:26.568Z,99.90
2022-12-18T21:30:57.201Z,99.90
2022-12-18T21:33:30.492Z,99.90
2022-12-18T21:36:03.915Z,99.90
2022-12-18T21:38:34.046Z,99.90
2022-12-18T21:41:10.600Z,99.90
2022-12-18T21:43:53.310Z,99.90
2022-12-18T21:46:23.579Z,99.90
2022-12-18T21:48:53.947Z,99.90
2022-12-18T21:51:28.574Z,99.90
2022-12-18T21:53:58.864Z,99.90
2022-12-18T21:56:48.714Z,99.90
2022-12-18T21:59:21.771Z,99.90
2022-12-18T22:01:53.903Z,99.90
2022-12-18T22:04:25.909Z,99.90
2022-12-18T22:06:56.445Z,99.90
2022-12-18T22:09:30.541Z,99.90
2022-12-18T22:12:03.569Z,99.90
2022-12-18T22:14:34.639Z,99.90
2022-12-18T22:17:05.269Z,99.90
2022-12-18T22:19:41.035Z,99.90
2022-12-18T22:22:13.311Z,99.90
2022-12-18T22:24:43.560Z,99.90
2022-12-18T22:27:17.648Z,99.90
2022-12-18T22:30:00.182Z,99.90
2022-12-18T22:32:31.280Z,99.90
2022-12-18T22:35:07.260Z,99.90
2022-12-18T22:37:40.772Z,99.90
2022-12-18T22:40:23.835Z,99.90
2022-12-18T22:42:58.115Z,99.90
2022-12-18T22:45:29.495Z,99.90
2022-12-18T22:48:00.175Z,99.90
2022-12-18T22:50:30.259Z,99.90
2022-12-18T22:53:00.407Z,99.90
2022-12-18T22:55:30.833Z,99.90
2022-12-18T22:58:03.927Z,99.90
2022-12-18T23:00:34.089Z,99.90
2022-12-18T23:03:14.407Z,99.90
2022-12-18T23:05:47.587Z,99.90
2022-12-18T23:08:18.563Z,99.90
2022-12-18T23:10:48.635Z,99.90
2022-12-18T23:13:24.946Z,99.90
2022-12-18T23:15:55.443Z,99.90
2022-12-18T23:18:26.006Z,99.90
2022-12-18T23:20:56.067Z,99.90
2022-12-18T23:23:26.923Z,99.90
2022-12-18T23:26:09.571Z,99.90
2022-12-18T23:28:43.288Z,99.90
2022-12-18T23:31:18.329Z,99.90
2022-12-18T23:33:51.694Z,99.90
2022-12-18T23:36:25.187Z,99.90
2022-12-18T23:38:58.864Z,99.90
2022-12-18T23:41:32.772Z,99.90
2022-12-18T23:44:06.264Z,99.90
2022-12-18T23:46:38.303Z,99.90
2022-12-18T23:49:09.067Z,99.90
2022-12-18T23:51:43.431Z,99.90
2022-12-18T23:54:14.253Z,99.90
2022-12-18T23:56:44.696Z,99.90
2022-12-18T23:59:23.951Z,99.90
